Dungannon, Ohio
Current Conditions -  °F | °C
As of 1:53 PM on Wednesday 26 Nov 2014 (Local Time) from KPKB Reporting Station
Overcast Overcast  
Wind Chill: 37°   Ceiling: 800
Heat Index: 37°   Visibility: 8mi
Dew Point: 33°   Wind: 3mph
Humidity: 86%   Direction: 330°NNW
Pressure: 30.05"   Gusts: NA
Location:  39.5678°N, 81.5815°W
Report Text: KPKB 261853Z 33003KT 8SM OVC008 03/01 A3005 RMK AO2 SLP182 T00280006
Loading
Personal Weather Stations






























Interactive Weather Map New forecast layout! Learn more

10-Day Weather Forecast

Advertisements
Track Severe Weather on mobile